createdAt,value
2023-04-22T03:58:38.488Z,4.00
2023-04-22T03:59:38.755Z,4.00
2023-04-22T04:00:38.469Z,4.00
2023-04-22T04:01:38.409Z,4.00
2023-04-22T04:02:38.695Z,4.00
2023-04-22T04:03:38.732Z,4.00
2023-04-22T04:04:38.702Z,4.00
2023-04-22T04:05:38.468Z,8.00
2023-04-22T04:06:38.386Z,8.00
2023-04-22T04:07:38.408Z,8.00
2023-04-22T04:08:38.403Z,8.00
2023-04-22T04:09:38.767Z,12.00
2023-04-22T04:10:38.352Z,12.00
2023-04-22T04:11:38.400Z,16.00
2023-04-22T04:12:38.378Z,20.00
2023-04-22T04:13:38.412Z,20.00
2023-04-22T04:14:38.360Z,24.00
2023-04-22T04:15:38.381Z,28.00
2023-04-22T04:16:38.371Z,28.00
2023-04-22T04:17:38.424Z,32.00
2023-04-22T04:18:38.332Z,36.00
2023-04-22T04:19:38.775Z,40.00
2023-04-22T04:20:38.332Z,44.00
2023-04-22T04:21:38.323Z,48.00
2023-04-22T04:22:38.302Z,52.00
2023-04-22T04:23:38.357Z,60.00
2023-04-22T04:24:38.301Z,64.00
2023-04-22T04:25:38.336Z,72.00
2023-04-22T04:26:38.289Z,76.00
2023-04-22T04:27:38.309Z,84.00
2023-04-22T04:28:38.320Z,88.00
2023-04-22T04:29:38.493Z,92.00
2023-04-22T04:30:38.295Z,100.00
2023-04-22T04:31:38.332Z,108.00
2023-04-22T04:32:38.315Z,112.00
2023-04-22T04:33:38.276Z,120.00
2023-04-22T04:34:38.273Z,124.00
2023-04-22T04:35:38.242Z,132.00
2023-04-22T04:36:38.266Z,132.00
2023-04-22T04:37:38.249Z,136.00
2023-04-22T04:38:38.252Z,140.00
2023-04-22T04:39:38.518Z,144.00
2023-04-22T04:40:38.236Z,144.00
2023-04-22T04:41:38.222Z,144.00
2023-04-22T04:42:38.239Z,148.00
2023-04-22T04:43:38.232Z,148.00
2023-04-22T04:44:38.242Z,156.00
2023-04-22T04:45:38.203Z,164.00
2023-04-22T04:46:38.270Z,168.00
2023-04-22T04:47:38.297Z,176.00
2023-04-22T04:48:38.215Z,180.00
2023-04-22T04:49:38.476Z,188.00
2023-04-22T04:50:38.181Z,192.00
2023-04-22T04:51:38.209Z,200.00
2023-04-22T04:52:38.199Z,212.00
2023-04-22T04:53:38.193Z,216.00
2023-04-22T04:54:38.183Z,224.00
2023-04-22T04:55:38.195Z,232.00
2023-04-22T04:56:38.188Z,244.00
2023-04-22T04:57:38.625Z,248.00
2023-04-22T04:58:38.150Z,260.00
2023-04-22T04:59:38.411Z,268.00
2023-04-22T05:00:38.146Z,276.00
2023-04-22T05:01:38.189Z,288.00
2023-04-22T05:02:38.297Z,292.00
2023-04-22T05:03:38.372Z,304.00
2023-04-22T05:04:38.270Z,312.00
2023-04-22T05:05:38.125Z,324.00
2023-04-22T05:06:38.156Z,332.00
2023-04-22T05:07:38.151Z,344.00
2023-04-22T05:08:38.147Z,348.00
2023-04-22T05:09:38.404Z,356.00
2023-04-22T05:10:38.167Z,364.00
2023-04-22T05:11:38.122Z,372.00
2023-04-22T05:12:38.166Z,384.00
2023-04-22T05:13:38.103Z,392.00
2023-04-22T05:14:38.117Z,408.00
2023-04-22T05:15:38.116Z,424.00
2023-04-22T05:16:38.157Z,440.00
2023-04-22T05:17:38.167Z,456.00
2023-04-22T05:18:38.109Z,472.00
2023-04-22T05:19:38.262Z,492.00
2023-04-22T05:20:38.092Z,516.00
2023-04-22T05:21:38.082Z,536.00
2023-04-22T05:22:38.109Z,556.00
2023-04-22T05:23:38.089Z,576.00
2023-04-22T05:24:38.092Z,600.00
2023-04-22T05:25:38.069Z,624.00
2023-04-22T05:26:38.063Z,648.00
2023-04-22T05:27:38.081Z,668.00
2023-04-22T05:28:38.068Z,684.00
2023-04-22T05:29:38.431Z,708.00
2023-04-22T05:30:38.053Z,728.00
2023-04-22T05:31:38.131Z,748.00
2023-04-22T05:32:38.115Z,768.00
2023-04-22T05:33:38.038Z,788.00
2023-04-22T05:34:38.072Z,812.00
2023-04-22T05:35:38.028Z,832.00
2023-04-22T05:36:38.055Z,852.00
2023-04-22T05:37:38.031Z,872.00
2023-04-22T05:38:38.047Z,892.00
2023-04-22T05:39:38.229Z,908.00
2023-04-22T05:40:38.020Z,916.00
2023-04-22T05:41:38.013Z,932.00
2023-04-22T05:42:38.030Z,972.00
2023-04-22T05:43:38.004Z,1000.00
2023-04-22T05:44:38.004Z,1040.00
2023-04-22T05:45:38.041Z,1056.00
2023-04-22T05:46:38.198Z,1048.00
2023-04-22T05:47:38.007Z,1164.00
2023-04-22T05:48:37.992Z,1124.00
2023-04-22T05:49:38.250Z,980.00
2023-04-22T05:50:38.004Z,1204.00
2023-04-22T05:51:37.975Z,952.00
2023-04-22T05:52:37.995Z,940.00
2023-04-22T05:53:38.000Z,948.00
2023-04-22T05:54:37.986Z,956.00
2023-04-22T05:55:37.962Z,964.00
2023-04-22T05:56:37.972Z,976.00
2023-04-22T05:57:37.981Z,992.00
2023-04-22T05:58:38.003Z,1000.00
2023-04-22T05:59:38.138Z,1016.00
2023-04-22T06:00:37.947Z,1028.00
2023-04-22T06:01:37.974Z,1036.00
2023-04-22T06:02:38.135Z,1044.00
2023-04-22T06:03:38.138Z,1056.00
2023-04-22T06:04:38.480Z,1064.00
2023-04-22T06:05:38.139Z,1076.00
2023-04-22T06:06:38.018Z,1084.00
2023-04-22T06:07:37.930Z,1088.00
2023-04-22T06:08:37.918Z,1080.00
2023-04-22T06:09:38.244Z,1080.00
2023-04-22T06:10:37.927Z,1084.00
2023-04-22T06:11:37.943Z,1088.00
2023-04-22T06:12:37.907Z,1096.00
2023-04-22T06:13:37.985Z,1104.00
2023-04-22T06:14:37.906Z,1112.00
2023-04-22T06:15:37.961Z,1124.00
2023-04-22T06:16:37.900Z,1136.00
2023-04-22T06:17:37.931Z,1144.00
2023-04-22T06:18:38.370Z,1164.00
2023-04-22T06:19:38.068Z,1180.00
2023-04-22T06:20:37.901Z,1200.00
2023-04-22T06:21:37.886Z,1216.00
2023-04-22T06:22:37.946Z,1232.00
2023-04-22T06:23:37.884Z,1248.00
2023-04-22T06:24:37.917Z,1268.00
2023-04-22T06:25:37.876Z,1284.00
2023-04-22T06:26:37.885Z,1300.00
2023-04-22T06:27:37.859Z,1328.00
2023-04-22T06:28:37.869Z,1348.00
2023-04-22T06:29:37.973Z,1376.00
2023-04-22T06:30:37.875Z,1400.00
2023-04-22T06:31:37.990Z,1428.00
2023-04-22T06:32:37.902Z,1456.00
2023-04-22T06:33:37.874Z,1484.00
2023-04-22T06:34:37.849Z,1512.00
2023-04-22T06:35:37.846Z,1544.00
2023-04-22T06:36:37.871Z,1560.00
2023-04-22T06:37:37.868Z,1584.00
2023-04-22T06:38:37.937Z,1608.00
2023-04-22T06:41:10.547Z,1792.00
2023-04-22T06:42:10.370Z,1744.00
2023-04-22T06:43:10.432Z,1744.00
2023-04-22T06:44:10.372Z,1780.00
2023-04-22T06:45:10.343Z,1808.00
2023-04-22T06:46:10.501Z,1848.00
2023-04-22T06:47:10.333Z,1964.00
2023-04-22T06:48:10.340Z,1968.00
2023-04-22T06:49:10.341Z,1936.00
2023-04-22T06:50:10.336Z,1936.00
2023-04-22T06:51:10.383Z,1932.00
2023-04-22T06:52:10.338Z,1936.00
2023-04-22T06:53:10.318Z,1948.00
2023-04-22T06:54:10.372Z,1968.00
2023-04-22T06:55:10.335Z,1988.00
2023-04-22T06:56:10.336Z,2020.00
2023-04-22T06:57:10.343Z,2040.00
2023-04-22T06:58:10.303Z,2076.00
2023-04-22T06:59:10.305Z,2112.00
2023-04-22T07:00:10.302Z,2148.00
2023-04-22T07:01:10.331Z,2184.00
2023-04-22T07:02:10.370Z,2220.00
2023-04-22T07:03:10.428Z,2316.00
2023-04-22T07:04:10.365Z,2312.00
2023-04-22T07:05:10.316Z,2340.00
2023-04-22T07:06:10.335Z,2392.00
2023-04-22T07:07:10.308Z,2456.00
2023-04-22T07:08:10.296Z,2624.00
2023-04-22T07:09:10.297Z,3340.00
2023-04-22T07:10:10.300Z,3304.00
2023-04-22T07:11:11.031Z,3116.00
2023-04-22T07:12:10.282Z,3632.00
2023-04-22T07:13:10.300Z,2960.00
2023-04-22T07:14:10.284Z,2916.00
2023-04-22T07:15:10.270Z,2968.00
2023-04-22T07:16:10.282Z,3040.00
2023-04-22T07:17:10.295Z,3128.00
2023-04-22T07:18:10.274Z,3036.00
2023-04-22T07:19:10.255Z,2972.00
2023-04-22T07:20:10.253Z,3040.00
2023-04-22T07:21:10.260Z,3332.00
2023-04-22T07:22:10.270Z,3308.00
2023-04-22T07:23:10.269Z,3700.00
2023-04-22T07:24:10.246Z,3180.00
2023-04-22T07:25:10.252Z,3240.00
2023-04-22T07:26:10.262Z,4948.00
2023-04-22T07:27:10.321Z,3804.00
2023-04-22T07:28:10.262Z,5732.00
2023-04-22T07:29:10.232Z,5120.00
2023-04-22T07:30:10.261Z,5812.00
2023-04-22T07:31:10.274Z,5988.00
2023-04-22T07:32:10.256Z,5912.00
2023-04-22T07:33:10.247Z,5276.00
2023-04-22T07:34:10.242Z,5864.00
2023-04-22T07:35:10.242Z,5360.00
2023-04-22T07:36:10.232Z,5784.00
2023-04-22T07:37:10.253Z,5672.00
2023-04-22T07:38:11.658Z,5772.00
2023-04-22T07:39:10.275Z,5764.00
2023-04-22T07:40:10.214Z,5512.00
2023-04-22T07:41:10.221Z,4928.00
2023-04-22T07:42:10.254Z,4716.00
2023-04-22T07:43:10.256Z,4856.00
2023-04-22T07:44:10.209Z,5696.00
2023-04-22T07:45:10.249Z,5708.00
2023-04-22T07:46:10.247Z,5528.00
2023-04-22T07:47:10.215Z,5636.00
2023-04-22T07:48:10.278Z,5624.00
2023-04-22T07:49:10.221Z,6016.00
2023-04-22T07:50:10.230Z,6304.00
2023-04-22T07:51:10.227Z,6288.00
2023-04-22T07:52:10.204Z,6276.00
2023-04-22T07:53:10.261Z,6080.00
2023-04-22T07:54:10.240Z,4752.00
2023-04-22T07:55:10.202Z,4864.00
2023-04-22T07:56:10.221Z,4864.00
2023-04-22T07:57:10.212Z,5032.00
2023-04-22T07:58:10.343Z,4768.00
2023-04-22T07:59:10.202Z,5096.00
2023-04-22T08:00:10.200Z,5412.00
2023-04-22T08:01:10.327Z,5560.00
2023-04-22T08:02:10.328Z,5736.00
2023-04-22T08:03:10.464Z,5760.00
2023-04-22T08:04:10.589Z,5872.00
2023-04-22T08:05:10.292Z,5484.00
2023-04-22T08:06:10.223Z,5600.00
2023-04-22T08:07:26.902Z,5364.00
2023-04-22T08:08:10.239Z,5380.00
2023-04-22T08:09:10.204Z,4608.00
2023-04-22T08:10:10.235Z,4088.00
2023-04-22T08:11:10.214Z,3692.00
2023-04-22T08:12:11.172Z,3544.00
2023-04-22T08:13:10.225Z,4656.00
2023-04-22T08:14:10.221Z,3592.00
2023-04-22T08:15:10.233Z,3448.00
2023-04-22T08:16:10.250Z,4428.00
2023-04-22T08:17:10.206Z,3460.00
2023-04-22T08:18:10.238Z,3688.00
2023-04-22T08:19:10.200Z,3560.00
2023-04-22T08:20:10.248Z,3484.00
2023-04-22T08:21:10.203Z,3844.00
2023-04-22T08:22:10.233Z,3664.00
2023-04-22T08:23:10.222Z,3740.00
2023-04-22T08:24:10.207Z,4548.00
2023-04-22T08:25:10.198Z,3828.00
2023-04-22T08:26:10.206Z,4056.00
2023-04-22T08:27:10.230Z,4104.00
2023-04-22T08:28:10.215Z,3776.00
2023-04-22T08:29:10.208Z,4212.00
2023-04-22T08:30:10.300Z,3492.00
2023-04-22T08:31:10.213Z,3412.00
2023-04-22T08:32:10.205Z,3116.00
2023-04-22T08:33:10.220Z,3116.00
2023-04-22T08:34:10.212Z,3268.00
2023-04-22T08:35:10.234Z,3380.00
2023-04-22T08:36:10.199Z,2880.00
2023-04-22T08:37:10.217Z,2728.00
2023-04-22T08:38:10.206Z,3904.00
2023-04-22T08:39:10.208Z,2928.00
2023-04-22T08:40:10.236Z,4260.00
2023-04-22T08:41:10.204Z,4068.00
2023-04-22T08:42:10.218Z,3472.00
2023-04-22T08:43:10.214Z,4008.00
2023-04-22T08:44:10.198Z,3708.00
2023-04-22T08:45:10.224Z,2860.00
2023-04-22T08:46:10.250Z,3544.00
2023-04-22T08:47:10.309Z,3660.00
2023-04-22T08:48:10.220Z,3648.00
2023-04-22T08:49:10.228Z,3704.00
2023-04-22T08:50:10.203Z,3712.00
2023-04-22T08:51:10.205Z,3696.00
2023-04-22T08:52:10.249Z,3708.00
2023-04-22T08:53:10.372Z,3648.00
2023-04-22T08:54:10.277Z,3640.00
2023-04-22T08:55:10.266Z,3244.00
2023-04-22T08:56:10.297Z,2800.00
2023-04-22T08:57:10.253Z,2648.00
2023-04-22T08:58:10.294Z,2616.00
2023-04-22T08:59:10.322Z,2580.00
2023-04-22T09:00:10.194Z,2660.00
2023-04-22T09:01:10.304Z,2780.00
2023-04-22T09:02:10.380Z,2888.00
2023-04-22T09:03:10.269Z,3100.00
2023-04-22T09:04:10.315Z,3196.00
2023-04-22T09:05:10.226Z,3484.00
2023-04-22T09:06:10.206Z,3612.00
2023-04-22T09:07:10.224Z,3464.00
2023-04-22T09:08:10.241Z,3464.00
2023-04-22T09:09:10.243Z,3500.00
2023-04-22T09:10:10.209Z,3468.00
2023-04-22T09:11:10.201Z,3408.00
2023-04-22T09:12:10.218Z,3384.00
2023-04-22T09:13:10.223Z,3412.00
2023-04-22T09:14:10.200Z,3436.00
2023-04-22T09:15:10.190Z,3560.00
2023-04-22T09:16:10.233Z,3752.00
2023-04-22T09:17:10.201Z,3504.00
2023-04-22T09:18:10.280Z,3280.00
2023-04-22T09:19:10.197Z,3180.00
2023-04-22T09:20:10.191Z,3248.00
2023-04-22T09:21:10.203Z,2904.00
2023-04-22T09:22:10.211Z,3368.00
2023-04-22T09:23:10.219Z,4328.00
2023-04-22T09:24:10.220Z,3392.00
2023-04-22T09:25:10.199Z,4288.00
2023-04-22T09:26:10.208Z,4244.00
2023-04-22T09:27:10.226Z,4248.00
2023-04-22T09:28:10.227Z,3420.00
2023-04-22T09:29:10.187Z,3812.00
2023-04-22T09:30:10.262Z,3616.00
2023-04-22T09:31:10.206Z,3576.00
2023-04-22T09:32:10.283Z,4136.00
2023-04-22T09:33:10.242Z,4324.00
2023-04-22T09:34:10.212Z,4292.00
2023-04-22T09:35:10.226Z,4204.00
2023-04-22T09:36:10.207Z,4040.00
2023-04-22T09:37:10.231Z,4164.00
2023-04-22T09:38:10.208Z,4320.00
2023-04-22T09:39:10.218Z,4596.00
2023-04-22T09:40:10.231Z,4592.00
2023-04-22T09:41:10.231Z,4412.00
2023-04-22T09:42:10.199Z,4476.00
2023-04-22T09:43:10.210Z,4492.00
2023-04-22T09:44:10.226Z,4584.00
2023-04-22T09:45:10.220Z,3668.00
2023-04-22T09:46:10.262Z,4224.00
2023-04-22T09:47:10.209Z,4048.00
2023-04-22T09:48:10.224Z,4284.00
2023-04-22T09:49:10.202Z,4476.00
2023-04-22T09:50:10.208Z,4328.00
2023-04-22T09:51:10.205Z,4356.00
2023-04-22T09:52:10.205Z,4412.00
2023-04-22T09:53:10.229Z,4452.00
2023-04-22T09:54:10.217Z,4052.00
2023-04-22T09:55:10.211Z,4232.00
2023-04-22T09:56:10.235Z,4304.00
2023-04-22T09:57:10.240Z,4396.00
2023-04-22T09:58:10.234Z,4560.00
2023-04-22T10:01:42.864Z,4872.00
2023-04-22T10:12:54.198Z,4540.00
2023-04-22T10:13:54.184Z,4776.00
2023-04-22T10:14:54.156Z,5400.00
2023-04-22T10:15:54.388Z,4664.00
2023-04-22T10:16:54.180Z,4764.00
2023-04-22T10:17:54.209Z,4632.00
2023-04-22T10:18:54.139Z,5420.00
2023-04-22T10:19:54.157Z,5424.00
2023-04-22T10:20:54.134Z,5380.00
2023-04-22T10:21:54.134Z,5372.00
2023-04-22T10:22:54.166Z,5392.00
2023-04-22T10:23:54.150Z,5384.00
2023-04-22T10:24:54.162Z,5368.00
2023-04-22T10:25:54.303Z,5380.00
2023-04-22T10:26:56.251Z,4620.00
2023-04-22T10:27:54.151Z,5356.00
2023-04-22T10:28:54.162Z,5508.00
2023-04-22T10:29:54.149Z,5244.00
2023-04-22T10:30:54.223Z,5540.00
2023-04-22T10:31:54.140Z,5432.00
2023-04-22T10:32:54.206Z,5520.00
2023-04-22T10:33:54.150Z,5688.00
2023-04-22T10:34:54.168Z,5408.00
2023-04-22T10:35:54.169Z,5056.00
2023-04-22T10:36:54.159Z,4752.00
2023-04-22T10:37:54.147Z,4740.00
2023-04-22T10:38:54.154Z,4888.00
2023-04-22T10:39:54.159Z,4940.00
2023-04-22T10:40:54.182Z,4868.00
2023-04-22T10:41:54.148Z,4904.00
2023-04-22T10:42:54.162Z,4936.00
2023-04-22T10:43:54.171Z,4908.00
2023-04-22T10:44:54.169Z,4836.00
2023-04-22T10:45:54.226Z,4848.00
2023-04-22T10:46:54.167Z,4804.00
2023-04-22T10:47:54.230Z,4820.00
2023-04-22T10:48:54.179Z,4940.00
2023-04-22T10:49:54.196Z,4912.00
2023-04-22T10:50:54.203Z,4828.00
2023-04-22T10:51:54.183Z,4800.00
2023-04-22T10:52:54.184Z,4956.00
2023-04-22T10:53:54.201Z,4912.00
2023-04-22T10:54:54.177Z,4900.00
2023-04-22T10:55:54.206Z,4900.00
2023-04-22T10:56:58.544Z,4860.00
2023-04-22T10:57:54.192Z,5268.00
2023-04-22T10:58:54.211Z,5276.00
2023-04-22T10:59:54.215Z,5556.00
2023-04-22T11:00:54.616Z,5608.00
2023-04-22T11:01:54.280Z,5704.00
2023-04-22T11:02:54.405Z,5664.00
2023-04-22T11:03:54.285Z,5704.00
2023-04-22T11:04:54.216Z,5684.00
2023-04-22T11:05:54.203Z,5612.00
2023-04-22T11:06:54.206Z,5612.00
2023-04-22T11:07:54.232Z,5688.00
2023-04-22T11:08:54.217Z,5604.00
2023-04-22T11:09:54.230Z,5592.00
2023-04-22T11:10:54.229Z,5724.00
2023-04-22T11:11:54.240Z,5684.00
2023-04-22T11:12:54.232Z,5684.00
2023-04-22T11:13:54.230Z,5828.00
2023-04-22T11:14:54.235Z,5884.00
2023-04-22T11:15:54.366Z,5892.00
2023-04-22T11:16:54.257Z,5968.00
2023-04-22T11:17:54.286Z,5872.00
2023-04-22T11:18:54.251Z,5896.00
2023-04-22T11:19:54.249Z,5936.00
2023-04-22T11:20:54.245Z,5936.00
2023-04-22T11:21:54.254Z,6108.00
2023-04-22T11:22:54.263Z,6080.00
2023-04-22T11:23:54.310Z,6132.00
2023-04-22T11:24:54.278Z,6292.00
2023-04-22T11:25:54.291Z,6440.00
2023-04-22T11:26:54.361Z,6488.00
2023-04-22T11:27:54.269Z,6456.00
2023-04-22T11:28:54.269Z,6268.00
2023-04-22T11:29:54.276Z,6400.00
2023-04-22T11:30:54.288Z,6256.00
2023-04-22T11:31:54.298Z,6340.00
2023-04-22T11:32:54.342Z,6388.00
2023-04-22T11:33:54.286Z,6632.00
2023-04-22T11:34:54.293Z,6628.00
2023-04-22T11:35:54.323Z,6836.00
2023-04-22T11:36:54.382Z,6560.00
2023-04-22T11:37:54.303Z,6740.00
2023-04-22T11:38:54.316Z,6820.00
2023-04-22T11:40:16.887Z,6912.00
2023-04-22T11:40:54.327Z,7008.00
2023-04-22T11:41:54.333Z,6592.00
2023-04-22T11:42:54.324Z,6628.00
2023-04-22T11:43:54.331Z,6444.00
2023-04-22T11:44:54.340Z,6428.00
2023-04-22T11:45:54.380Z,6400.00
2023-04-22T11:46:54.363Z,6528.00
2023-04-22T11:47:54.367Z,7320.00
2023-04-22T11:48:54.379Z,7588.00
2023-04-22T11:49:54.349Z,7672.00
2023-04-22T11:50:54.378Z,7564.00
2023-04-22T11:51:54.354Z,8072.00
2023-04-22T11:52:54.355Z,8012.00
2023-04-22T11:53:54.369Z,7860.00
2023-04-22T11:54:54.385Z,7272.00
2023-04-22T11:55:54.390Z,7344.00
2023-04-22T11:56:54.402Z,7620.00
2023-04-22T11:57:54.396Z,7808.00
2023-04-22T11:58:54.392Z,8000.00
2023-04-22T11:59:54.384Z,7992.00
2023-04-22T12:00:54.450Z,8244.00
2023-04-22T12:01:54.416Z,8376.00
2023-04-22T12:02:54.518Z,8268.00
2023-04-22T12:03:54.481Z,8444.00
2023-04-22T12:04:54.452Z,8368.00
2023-04-22T12:05:54.424Z,8116.00
2023-04-22T12:06:54.427Z,7712.00
2023-04-22T12:07:54.419Z,8644.00
2023-04-22T12:08:54.416Z,9228.00
2023-04-22T12:09:54.427Z,9344.00
2023-04-22T12:10:54.447Z,9776.00
2023-04-22T12:11:54.459Z,9816.00
2023-04-22T12:12:54.439Z,9748.00
2023-04-22T12:13:54.457Z,9632.00
2023-04-22T12:14:54.449Z,8076.00
2023-04-22T12:15:54.469Z,7604.00
2023-04-22T12:16:54.492Z,7224.00
2023-04-22T12:17:54.541Z,8020.00
2023-04-22T12:18:54.483Z,8944.00
2023-04-22T12:19:54.490Z,9312.00
2023-04-22T12:20:54.509Z,8896.00
2023-04-22T12:21:54.487Z,9088.00
2023-04-22T12:22:54.508Z,9672.00
2023-04-22T12:23:54.504Z,10332.00
2023-04-22T12:24:54.507Z,10348.00
2023-04-22T12:25:54.514Z,9280.00
2023-04-22T12:26:54.538Z,9556.00
2023-04-22T12:27:54.534Z,6536.00
2023-04-22T12:28:54.570Z,6116.00
2023-04-22T12:29:54.549Z,5072.00
2023-04-22T12:30:54.580Z,4832.00
2023-04-22T12:31:54.577Z,4712.00
2023-04-22T12:32:54.538Z,4588.00
2023-04-22T12:33:54.589Z,4400.00
2023-04-22T12:34:54.578Z,4636.00
2023-04-22T12:35:54.562Z,4876.00
2023-04-22T12:36:54.612Z,4912.00
2023-04-22T12:37:54.570Z,4932.00
2023-04-22T12:38:54.571Z,5304.00
2023-04-22T12:39:54.587Z,5996.00
2023-04-22T12:40:54.605Z,12404.00
2023-04-22T12:41:54.576Z,12388.00
2023-04-22T12:42:54.593Z,11800.00
2023-04-22T12:46:27.202Z,3516.00
2023-04-22T12:47:27.159Z,2996.00
2023-04-22T12:48:27.140Z,2752.00
2023-04-22T12:49:27.143Z,2552.00
2023-04-22T12:50:27.164Z,2460.00
2023-04-22T12:51:27.164Z,2224.00
2023-04-22T12:52:27.188Z,2164.00
2023-04-22T12:53:27.171Z,2232.00
2023-04-22T12:54:27.170Z,2284.00
2023-04-22T12:55:27.186Z,2392.00
2023-04-22T12:56:27.183Z,2680.00
2023-04-22T12:57:27.187Z,3140.00
2023-04-22T12:58:27.208Z,3764.00
2023-04-22T12:59:27.194Z,4484.00
2023-04-22T13:00:27.177Z,5000.00
2023-04-22T13:01:27.228Z,10060.00
2023-04-22T13:02:27.336Z,9036.00
2023-04-22T13:03:27.452Z,15140.00
2023-04-22T13:04:27.329Z,5852.00
2023-04-22T13:05:27.190Z,6108.00
2023-04-22T13:06:27.201Z,6448.00
2023-04-22T13:07:27.261Z,15592.00
2023-04-22T13:08:27.205Z,6708.00
2023-04-22T13:09:27.215Z,15864.00
2023-04-22T13:10:27.213Z,7376.00
2023-04-22T13:11:27.212Z,7352.00
2023-04-22T13:12:27.232Z,20320.00
2023-04-22T13:13:27.245Z,7032.00
2023-04-22T13:14:27.219Z,10556.00
2023-04-22T13:15:27.223Z,18752.00
2023-04-22T13:16:27.389Z,19296.00
2023-04-22T13:17:27.264Z,14624.00
2023-04-22T13:18:27.215Z,5720.00
2023-04-22T13:20:27.234Z,2320.00
2023-04-22T13:21:27.224Z,1992.00
2023-04-22T13:22:27.289Z,1836.00
2023-04-22T13:23:27.272Z,1776.00
2023-04-22T13:24:27.267Z,1860.00
2023-04-22T13:25:27.267Z,2028.00
2023-04-22T13:26:27.278Z,2188.00
2023-04-22T13:27:27.243Z,2328.00
2023-04-22T13:28:27.432Z,2508.00
2023-04-22T13:29:27.262Z,2708.00
2023-04-22T13:30:27.264Z,2892.00
2023-04-22T13:31:27.276Z,3136.00
2023-04-22T13:32:27.284Z,3468.00
2023-04-22T13:33:27.266Z,3668.00
2023-04-22T13:34:27.273Z,3916.00
2023-04-22T13:35:27.275Z,4700.00
2023-04-22T13:36:27.286Z,6256.00
2023-04-22T13:37:27.271Z,8420.00
2023-04-22T13:38:27.286Z,23680.00
2023-04-22T13:39:27.274Z,20448.00
2023-04-22T13:40:27.380Z,10896.00
2023-04-22T13:41:27.293Z,22848.00
2023-04-22T13:42:27.294Z,14112.00
2023-04-22T13:43:27.298Z,12620.00
2023-04-22T13:44:27.319Z,20128.00
2023-04-22T13:45:27.373Z,6008.00
2023-04-22T13:46:27.304Z,5024.00
2023-04-22T13:47:27.401Z,4352.00
2023-04-22T13:48:27.328Z,8284.00
2023-04-22T13:49:27.326Z,2648.00
2023-04-22T13:50:27.338Z,2608.00
2023-04-22T13:51:27.310Z,3036.00
2023-04-22T13:52:27.309Z,3744.00
2023-04-22T13:53:27.330Z,4712.00
2023-04-22T13:54:27.330Z,5196.00
2023-04-22T13:55:27.342Z,5536.00
2023-04-22T13:56:27.360Z,6424.00
2023-04-22T13:57:27.321Z,10996.00
2023-04-22T13:58:27.355Z,9264.00
2023-04-22T13:59:27.344Z,6032.00
2023-04-22T14:00:27.351Z,5744.00
2023-04-22T14:01:27.463Z,5992.00
2023-04-22T14:02:27.462Z,15136.00
2023-04-22T14:03:27.464Z,10736.00
2023-04-22T14:04:27.378Z,24128.00
2023-04-22T14:05:27.354Z,28864.00
2023-04-22T14:06:27.371Z,30048.00
2023-04-22T14:07:27.364Z,13992.00
2023-04-22T14:08:27.372Z,8640.00
2023-04-22T14:09:27.372Z,9408.00
2023-04-22T14:10:28.722Z,36608.00
2023-04-22T14:11:27.392Z,7860.00
2023-04-22T14:12:27.399Z,8808.00
2023-04-22T14:13:27.370Z,9788.00
2023-04-22T14:14:27.393Z,11384.00
2023-04-22T14:15:27.373Z,7316.00
2023-04-22T14:16:27.386Z,8020.00
2023-04-22T14:17:27.482Z,14968.00
2023-04-22T14:18:27.419Z,18076.00
2023-04-22T14:19:27.394Z,23680.00
2023-04-22T14:20:27.440Z,11628.00
2023-04-22T14:21:28.122Z,47840.00
2023-04-22T14:22:27.399Z,53824.00
2023-04-22T14:23:27.403Z,55200.00
2023-04-22T14:24:27.398Z,48032.00
2023-04-22T14:25:27.399Z,59296.00
2023-04-22T14:26:27.405Z,58944.00
2023-04-22T14:27:27.397Z,60640.00
2023-04-22T14:28:28.371Z,55168.00
2023-04-22T14:29:27.403Z,59136.00
2023-04-22T14:30:27.448Z,53440.00
2023-04-22T14:31:27.527Z,51712.00
2023-04-22T14:32:27.430Z,10196.00
2023-04-22T14:33:27.463Z,11264.00
2023-04-22T14:34:27.583Z,50752.00
2023-04-22T14:35:27.444Z,46560.00
2023-04-22T14:36:27.434Z,43104.00
2023-04-22T14:37:27.707Z,44352.00
2023-04-22T14:38:27.435Z,57600.00
2023-04-22T14:39:27.464Z,54112.00
2023-04-22T14:40:27.468Z,55008.00
2023-04-22T14:41:27.486Z,52960.00
2023-04-22T14:42:27.463Z,49984.00
2023-04-22T14:43:27.467Z,13748.00
2023-04-22T14:44:27.534Z,7300.00
2023-04-22T14:45:27.558Z,8868.00
2023-04-22T14:46:27.520Z,47616.00
2023-04-22T14:47:27.515Z,50432.00
2023-04-22T14:48:27.491Z,49920.00
2023-04-22T14:49:27.501Z,46464.00
2023-04-22T14:50:27.526Z,44480.00
2023-04-22T14:51:27.508Z,50400.00
2023-04-22T14:52:27.541Z,50656.00
2023-04-22T14:53:27.525Z,51936.00
2023-04-22T14:54:28.083Z,52640.00
2023-04-22T14:55:27.549Z,54304.00
2023-04-22T14:56:27.544Z,51936.00
2023-04-22T14:57:27.557Z,44448.00
2023-04-22T14:58:27.557Z,32096.00
2023-04-22T14:59:27.559Z,27840.00
2023-04-22T15:00:27.581Z,29184.00
2023-04-22T15:01:27.634Z,17332.00
2023-04-22T15:02:27.706Z,15076.00
2023-04-22T15:03:27.808Z,29536.00
2023-04-22T15:04:27.665Z,47104.00
2023-04-22T15:05:27.586Z,27104.00
2023-04-22T15:06:27.591Z,39488.00
2023-04-22T15:07:27.599Z,34944.00
2023-04-22T15:08:27.599Z,48768.00
2023-04-22T15:09:27.640Z,46912.00
2023-04-22T15:10:27.647Z,45472.00
2023-04-22T15:11:27.606Z,24352.00
2023-04-22T15:12:27.620Z,10080.00
2023-04-22T15:16:00.313Z,6848.00
2023-04-22T15:17:00.136Z,7220.00
2023-04-22T15:18:00.202Z,5528.00
2023-04-22T15:19:00.162Z,4688.00
2023-04-22T15:20:00.276Z,4208.00
2023-04-22T15:21:00.159Z,4172.00
2023-04-22T15:22:00.177Z,4592.00
2023-04-22T15:23:00.173Z,6000.00
2023-04-22T15:24:00.180Z,4460.00
2023-04-22T15:25:00.181Z,3552.00
2023-04-22T15:26:00.192Z,3468.00
2023-04-22T15:27:00.267Z,3564.00
2023-04-22T15:28:00.211Z,3736.00
2023-04-22T15:29:00.192Z,3768.00
2023-04-22T15:30:00.244Z,3916.00
2023-04-22T15:31:00.240Z,4204.00
2023-04-22T15:32:00.262Z,4776.00
2023-04-22T15:33:00.249Z,5360.00
2023-04-22T15:34:00.218Z,5096.00
2023-04-22T15:35:00.230Z,4540.00
2023-04-22T15:36:00.221Z,4316.00
2023-04-22T15:37:00.223Z,4164.00
2023-04-22T15:38:00.221Z,3892.00
2023-04-22T15:39:00.222Z,3604.00
2023-04-22T15:40:00.255Z,3492.00
2023-04-22T15:41:00.282Z,3344.00
2023-04-22T15:42:00.229Z,2996.00
2023-04-22T15:43:00.246Z,2784.00
2023-04-22T15:44:00.262Z,2592.00
2023-04-22T15:45:00.262Z,2392.00
2023-04-22T15:46:00.265Z,2196.00
2023-04-22T15:47:00.299Z,2076.00
2023-04-22T15:48:00.341Z,2048.00
2023-04-22T15:49:00.280Z,2068.00
2023-04-22T15:50:00.261Z,2132.00
2023-04-22T15:51:00.275Z,2256.00
2023-04-22T15:52:00.252Z,2468.00
2023-04-22T15:53:00.278Z,2860.00
2023-04-22T15:54:00.271Z,2788.00
2023-04-22T15:55:00.279Z,2724.00
2023-04-22T15:56:00.279Z,2640.00
2023-04-22T15:57:00.277Z,2432.00
2023-04-22T15:58:00.265Z,2280.00
2023-04-22T15:59:00.270Z,2080.00
2023-04-22T16:00:13.290Z,1872.00
2023-04-22T16:11:56.379Z,536.00
2023-04-22T16:12:56.329Z,496.00
2023-04-22T16:13:56.346Z,468.00
2023-04-22T16:14:56.336Z,448.00
2023-04-22T16:15:56.339Z,436.00
2023-04-22T16:16:56.449Z,424.00
2023-04-22T16:17:56.482Z,408.00
2023-04-22T16:18:56.359Z,372.00
2023-04-22T16:19:56.323Z,340.00
2023-04-22T16:20:56.334Z,332.00
2023-04-22T16:21:56.322Z,348.00
2023-04-22T16:22:56.332Z,384.00
2023-04-22T16:23:56.327Z,428.00
2023-04-22T16:24:56.333Z,448.00
2023-04-22T16:25:56.353Z,456.00
2023-04-22T16:26:56.353Z,452.00
2023-04-22T16:27:56.333Z,432.00
2023-04-22T16:28:56.327Z,416.00
2023-04-22T16:29:56.340Z,404.00
2023-04-22T16:30:56.375Z,408.00
2023-04-22T16:31:56.331Z,408.00
2023-04-22T16:32:56.343Z,416.00
2023-04-22T16:33:56.342Z,432.00
2023-04-22T16:34:56.323Z,448.00
2023-04-22T16:35:56.324Z,460.00
2023-04-22T16:36:56.327Z,472.00
2023-04-22T16:37:56.349Z,484.00